createdAt,value
2022-12-20T00:00:05.297Z,1.00
2022-12-20T01:13:17.699Z,1.08
2022-12-20T01:30:48.649Z,1.30
2022-12-20T01:54:18.077Z,0.88
2022-12-20T01:58:22.793Z,0.70
2022-12-20T02:06:05.827Z,1.00
2022-12-20T02:12:42.324Z,0.93
2022-12-20T02:28:16.951Z,1.00
2022-12-20T04:34:35.301Z,1.17
2022-12-20T04:45:32.094Z,1.35
2022-12-20T12:03:18.001Z,1.10
2022-12-20T12:26:14.423Z,0.98
2022-12-20T12:53:24.835Z,0.95
2022-12-20T14:33:21.773Z,1.02
2022-12-20T15:23:53.028Z,2.00
2022-12-20T15:42:44.137Z,1.90
2022-12-20T16:26:55.156Z,4.78
2022-12-20T16:57:18.224Z,2.55
2022-12-20T17:50:44.720Z,11.18
2022-12-20T18:14:50.192Z,8.80
2022-12-20T18:17:19.097Z,8.00
2022-12-20T18:19:47.480Z,9.52
2022-12-20T18:22:15.958Z,9.45
2022-12-20T18:24:48.969Z,8.52
2022-12-20T18:27:16.387Z,10.65
2022-12-20T18:29:43.634Z,9.48
2022-12-20T18:32:11.523Z,6.45
2022-12-20T18:34:46.787Z,5.40
2022-12-20T18:37:14.530Z,7.25
2022-12-20T18:39:51.621Z,5.13
2022-12-20T18:43:06.281Z,5.35
2022-12-20T18:45:41.057Z,4.18
2022-12-20T18:48:08.343Z,4.70
2022-12-20T18:50:57.468Z,6.60
2022-12-20T18:53:24.945Z,6.45
2022-12-20T18:55:54.671Z,5.70
2022-12-20T18:58:22.166Z,5.28
2022-12-20T19:00:57.595Z,5.28
2022-12-20T19:06:24.069Z,7.80
2022-12-20T19:08:54.940Z,7.78
2022-12-20T19:11:38.659Z,6.28
2022-12-20T19:14:08.625Z,6.80
2022-12-20T19:16:39.847Z,6.75
2022-12-20T19:19:44.552Z,7.15
2022-12-20T19:22:47.517Z,22.38
2022-12-20T19:25:18.249Z,11.23
2022-12-20T19:28:54.161Z,9.35
2022-12-20T19:38:36.809Z,24.48
2022-12-20T19:41:23.895Z,31.98
2022-12-20T19:44:27.519Z,31.73
2022-12-20T19:47:16.825Z,21.30
2022-12-20T19:50:13.454Z,15.02
2022-12-20T19:52:44.335Z,10.27
2022-12-20T19:55:14.736Z,9.10
2022-12-20T19:58:08.641Z,10.55
2022-12-20T20:01:09.248Z,8.23
2022-12-20T20:03:59.195Z,8.68
2022-12-20T20:09:13.475Z,6.30
2022-12-20T20:12:56.982Z,7.28
2022-12-20T20:15:40.725Z,11.50
2022-12-20T20:18:50.331Z,6.85
2022-12-20T20:21:49.391Z,7.78
2022-12-20T20:24:23.342Z,7.05
2022-12-20T20:27:03.106Z,6.90
2022-12-20T20:29:46.479Z,32.28
2022-12-20T20:32:24.429Z,6.38
2022-12-20T20:34:56.786Z,5.78
2022-12-20T20:37:42.341Z,4.75
2022-12-20T20:40:24.227Z,5.72
2022-12-20T20:43:17.326Z,6.80
2022-12-20T20:45:49.735Z,7.82
2022-12-20T20:51:03.825Z,17.40
2022-12-20T20:53:39.330Z,17.90
2022-12-20T20:56:19.185Z,11.57
2022-12-20T20:59:04.602Z,15.75
2022-12-20T21:01:39.868Z,13.68
2022-12-20T21:04:11.550Z,11.85
2022-12-20T21:06:50.209Z,11.48
2022-12-20T21:09:32.886Z,8.82
2022-12-20T21:12:02.737Z,8.27
2022-12-20T21:15:21.208Z,9.93
2022-12-20T21:17:40.820Z,7.38
2022-12-20T21:20:10.153Z,33.20
2022-12-20T21:22:50.453Z,43.83
2022-12-20T21:25:43.480Z,21.38
2022-12-20T21:28:39.720Z,14.95
2022-12-20T21:31:21.869Z,16.70
2022-12-20T21:33:49.444Z,14.27
2022-12-20T21:39:01.995Z,8.02
2022-12-20T21:41:45.415Z,9.15
2022-12-20T21:44:28.015Z,8.60
2022-12-20T21:47:02.299Z,7.15
2022-12-20T21:49:50.964Z,9.40
2022-12-20T21:52:19.238Z,7.47
2022-12-20T21:54:49.685Z,8.43
2022-12-20T21:57:44.219Z,10.25
2022-12-20T22:00:12.692Z,9.60
2022-12-20T22:02:44.401Z,9.15
2022-12-20T22:05:18.354Z,8.48
2022-12-20T22:07:55.229Z,7.40
2022-12-20T22:10:35.329Z,6.63
2022-12-20T22:13:17.516Z,5.15
2022-12-20T22:15:52.462Z,5.88
2022-12-20T22:18:37.387Z,6.68
2022-12-20T22:21:16.626Z,5.78
2022-12-20T22:23:44.504Z,6.05
2022-12-20T22:26:16.365Z,5.18
2022-12-20T22:29:13.222Z,6.40
2022-12-20T22:31:48.530Z,6.18
2022-12-20T22:34:17.318Z,5.45
2022-12-20T22:36:55.407Z,5.47
2022-12-20T22:39:24.207Z,6.10
2022-12-20T22:41:55.871Z,4.03
2022-12-20T22:44:51.772Z,4.53
2022-12-20T22:47:23.467Z,2.65
2022-12-20T22:49:50.688Z,5.00
2022-12-20T22:52:22.728Z,6.28
2022-12-20T22:54:57.529Z,3.50
2022-12-20T22:57:40.651Z,2.60
2022-12-20T23:00:15.247Z,3.00
2022-12-20T23:02:49.800Z,2.60
2022-12-20T23:05:40.904Z,3.13
2022-12-20T23:08:08.592Z,5.72
2022-12-20T23:11:38.831Z,4.03
2022-12-20T23:17:37.567Z,3.15
2022-12-20T23:20:33.209Z,3.40
2022-12-20T23:23:06.873Z,1.92
2022-12-20T23:25:41.862Z,1.85
2022-12-20T23:28:09.488Z,2.67
2022-12-20T23:30:41.842Z,3.25
2022-12-20T23:33:16.796Z,3.35
2022-12-20T23:35:52.531Z,3.22
2022-12-20T23:38:27.979Z,3.55
2022-12-20T23:40:58.604Z,3.80
2022-12-20T23:43:35.124Z,4.57
2022-12-20T23:46:10.979Z,4.72
2022-12-20T23:55:29.837Z,6.10
2022-12-20T23:58:22.170Z,6.15
